createdAt,value
2019-05-07T00:01:29.455Z,100873.92
2019-05-07T00:04:17.108Z,100880.35
2019-05-07T00:12:46.637Z,100877.91
2019-05-07T00:15:54.958Z,100877.94
2019-05-07T00:18:23.356Z,100877.11
2019-05-07T00:21:12.629Z,100877.17
2019-05-07T00:23:43.193Z,100877.16
2019-05-07T00:26:13.199Z,100875.00
2019-05-07T00:31:28.859Z,100876.98
2019-05-07T00:37:13.124Z,100870.95
2019-05-07T00:40:22.431Z,100868.78
2019-05-07T00:43:28.679Z,100867.39
2019-05-07T00:49:12.683Z,100866.73
2019-05-07T00:52:00.210Z,100862.66
2019-05-07T00:57:22.915Z,100867.50
2019-05-07T00:59:52.611Z,100861.17
2019-05-07T01:02:43.128Z,100862.78
2019-05-07T01:08:06.154Z,100864.39
2019-05-07T01:15:43.138Z,100865.91
2019-05-07T01:18:32.490Z,100871.88
2019-05-07T01:21:02.498Z,100874.66
2019-05-07T01:23:52.187Z,100872.07
2019-05-07T01:29:13.118Z,100866.97
2019-05-07T01:34:35.988Z,100862.51
2019-05-07T01:37:04.412Z,100867.11
2019-05-07T01:39:32.935Z,100868.05
2019-05-07T01:42:02.948Z,100868.78
2019-05-07T01:44:32.591Z,100866.44
2019-05-07T01:47:02.505Z,100867.34
2019-05-07T01:49:32.972Z,100866.88
2019-05-07T01:52:42.715Z,100866.29
2019-05-07T01:55:52.350Z,100873.67
2019-05-07T01:58:22.186Z,100872.37
2019-05-07T02:01:13.059Z,100872.20
2019-05-07T02:04:02.306Z,100870.77
2019-05-07T02:06:49.714Z,100871.34
2019-05-07T02:09:37.235Z,100878.11
2019-05-07T02:14:42.261Z,100884.70
2019-05-07T02:17:32.170Z,100888.02
2019-05-07T02:20:02.685Z,100888.17
2019-05-07T02:22:31.999Z,100887.55
2019-05-07T02:25:03.073Z,100884.02
2019-05-07T02:27:32.877Z,100886.06
2019-05-07T02:30:04.244Z,100882.39
2019-05-07T02:32:33.485Z,100883.67
2019-05-07T02:35:23.317Z,100881.28
2019-05-07T02:40:58.911Z,100880.27
2019-05-07T02:46:36.207Z,100880.05
2019-05-07T02:49:23.506Z,100882.69
2019-05-07T02:52:13.528Z,100878.72
2019-05-07T02:55:03.488Z,100879.10
2019-05-07T02:57:49.610Z,100875.95
2019-05-07T03:00:57.942Z,100874.69
2019-05-07T03:03:26.337Z,100874.02
2019-05-07T03:05:54.753Z,100873.33
2019-05-07T03:08:43.910Z,100876.56
2019-05-07T03:14:06.895Z,100877.77
2019-05-07T03:16:43.498Z,100881.26
2019-05-07T03:19:05.691Z,100882.77
2019-05-07T03:21:54.340Z,100885.73
2019-05-07T03:28:13.557Z,100882.79
2019-05-07T03:31:05.266Z,100888.61
2019-05-07T03:36:29.007Z,100890.87
2019-05-07T03:38:57.401Z,100884.98
2019-05-07T03:41:45.228Z,100891.33
2019-05-07T03:47:23.832Z,100891.41
2019-05-07T03:50:14.175Z,100896.61
2019-05-07T03:52:42.849Z,100889.19
2019-05-07T03:55:53.870Z,100890.34
2019-05-07T03:59:03.632Z,100891.13
2019-05-07T04:01:53.613Z,100892.65
2019-05-07T04:04:43.029Z,100888.44
2019-05-07T04:07:13.525Z,100900.19
2019-05-07T04:12:27.869Z,100897.53
2019-05-07T04:14:56.262Z,100891.16
2019-05-07T04:17:43.791Z,100895.70
2019-05-07T04:20:53.968Z,100894.80
2019-05-07T04:23:23.374Z,100889.95
2019-05-07T04:31:58.827Z,100900.19
2019-05-07T04:34:46.359Z,100903.94
2019-05-07T04:37:34.034Z,100901.13
2019-05-07T04:43:09.009Z,100905.78
2019-05-07T04:45:56.528Z,100908.64
2019-05-07T04:48:44.359Z,100901.02
2019-05-07T04:54:23.664Z,100904.23
2019-05-07T04:57:12.870Z,100904.03
2019-05-07T04:59:42.933Z,100905.75
2019-05-07T05:05:03.283Z,100900.93
2019-05-07T05:07:33.497Z,100904.36
2019-05-07T05:10:02.768Z,100904.16
2019-05-07T05:12:32.633Z,100901.29
2019-05-07T05:15:02.240Z,100902.95
2019-05-07T05:25:49.477Z,100925.71
2019-05-07T05:28:17.885Z,100930.84
2019-05-07T05:31:05.409Z,100933.41
2019-05-07T05:33:33.816Z,100943.07
2019-05-07T05:39:10.301Z,100951.02
2019-05-07T05:44:46.947Z,100959.88
2019-05-07T05:47:15.348Z,100962.56
2019-05-07T05:49:43.755Z,100968.25
2019-05-07T05:52:32.902Z,100977.02
2019-05-07T06:00:59.311Z,100981.94
2019-05-07T06:03:46.826Z,100987.27
2019-05-07T06:06:34.359Z,100989.84
2019-05-07T06:09:42.210Z,100996.17
2019-05-07T06:12:29.831Z,101000.42
2019-05-07T06:15:36.608Z,100999.30
2019-05-07T06:18:24.123Z,101000.69
2019-05-07T06:24:08.143Z,101001.22
2019-05-07T06:29:29.612Z,101013.47
2019-05-07T06:35:46.260Z,101012.28
2019-05-07T06:46:38.756Z,101009.64
2019-05-07T06:49:07.188Z,101014.70
2019-05-07T06:51:54.858Z,101013.80
2019-05-07T06:54:23.266Z,101014.01
2019-05-07T06:57:12.983Z,101017.83
2019-05-07T07:03:15.837Z,101016.77
2019-05-07T07:06:03.363Z,101026.29
2019-05-07T07:11:42.304Z,101029.16
2019-05-07T07:20:12.738Z,101018.81
2019-05-07T07:23:02.373Z,101012.61
2019-05-07T07:25:32.590Z,101003.77
2019-05-07T07:28:42.931Z,101008.05
2019-05-07T07:31:31.878Z,101009.33
2019-05-07T07:34:22.532Z,101008.42
2019-05-07T07:37:28.394Z,101010.13
2019-05-07T07:40:15.913Z,100999.45
2019-05-07T07:45:37.399Z,100998.10
2019-05-07T07:48:05.796Z,100997.59
2019-05-07T07:50:53.334Z,100992.42
2019-05-07T07:53:22.672Z,100995.98
2019-05-07T07:56:45.363Z,100994.67
2019-05-07T08:04:28.595Z,100988.88
2019-05-07T08:07:03.325Z,100982.78
2019-05-07T08:09:33.528Z,100974.78
2019-05-07T08:12:02.755Z,100973.89
2019-05-07T08:14:32.461Z,100974.34
2019-05-07T08:17:02.868Z,100963.52
2019-05-07T08:19:32.838Z,100961.73
2019-05-07T08:22:02.843Z,100961.02
2019-05-07T08:24:32.182Z,100960.70
2019-05-07T08:27:02.344Z,100962.70
2019-05-07T08:29:32.517Z,100954.86
2019-05-07T08:32:09.076Z,100954.75
2019-05-07T08:34:42.820Z,100946.72
2019-05-07T08:37:12.050Z,100957.95
2019-05-07T08:39:42.742Z,100956.16
2019-05-07T08:42:12.283Z,100951.54
2019-05-07T08:44:42.995Z,100949.58
2019-05-07T08:47:13.094Z,100951.27
2019-05-07T08:49:43.394Z,100953.98
2019-05-07T08:52:12.173Z,100947.73
2019-05-07T08:54:42.676Z,100942.80
2019-05-07T08:57:12.153Z,100940.44
2019-05-07T08:59:43.760Z,100941.19
2019-05-07T09:02:12.556Z,100943.52
2019-05-07T09:04:41.738Z,100940.48
2019-05-07T09:07:12.823Z,100936.91
2019-05-07T09:09:42.649Z,100935.02
2019-05-07T09:12:12.433Z,100938.44
2019-05-07T09:14:42.637Z,100929.72
2019-05-07T09:17:12.754Z,100925.59
2019-05-07T09:19:50.975Z,100933.98
2019-05-07T09:22:12.707Z,100925.84
2019-05-07T09:24:42.380Z,100919.36
2019-05-07T09:27:12.699Z,100920.23
2019-05-07T09:29:54.915Z,100923.34
2019-05-07T09:32:32.659Z,100913.52
2019-05-07T09:35:02.770Z,100913.52
2019-05-07T09:37:32.729Z,100916.94
2019-05-07T09:40:02.770Z,100916.55
2019-05-07T09:42:33.247Z,100907.45
2019-05-07T09:45:01.894Z,100910.63
2019-05-07T09:47:32.429Z,100911.66
2019-05-07T09:50:05.503Z,100904.23
2019-05-07T09:52:32.163Z,100909.73
2019-05-07T09:55:10.987Z,100908.09
2019-05-07T09:57:32.491Z,100910.41
2019-05-07T10:00:02.263Z,100899.48
2019-05-07T10:02:32.072Z,100909.23
2019-05-07T10:05:02.481Z,100909.77
2019-05-07T10:07:32.527Z,100899.94
2019-05-07T10:10:03.141Z,100904.91
2019-05-07T10:12:33.072Z,100903.86
2019-05-07T10:15:03.055Z,100902.95
2019-05-07T10:17:33.281Z,100905.05
2019-05-07T10:20:04.451Z,100895.00
2019-05-07T10:22:32.382Z,100891.02
2019-05-07T10:25:02.823Z,100889.05
2019-05-07T10:27:32.418Z,100885.22
2019-05-07T10:30:02.356Z,100886.91
2019-05-07T10:32:32.196Z,100886.78
2019-05-07T10:35:02.076Z,100884.46
2019-05-07T10:37:31.884Z,100889.36
2019-05-07T10:40:02.866Z,100887.64
2019-05-07T10:42:32.399Z,100887.38
2019-05-07T10:45:08.147Z,100889.76
2019-05-07T10:47:43.978Z,100885.05
2019-05-07T10:50:35.423Z,100884.94
2019-05-07T10:52:54.045Z,100881.92
2019-05-07T10:55:22.442Z,100876.22
2019-05-07T10:57:52.813Z,100887.85
2019-05-07T11:00:23.770Z,100878.31
2019-05-07T11:02:52.233Z,100872.55
2019-05-07T11:05:21.979Z,100872.58
2019-05-07T11:07:50.431Z,100871.16
2019-05-07T11:10:19.155Z,100867.39
2019-05-07T11:12:47.557Z,100875.89
2019-05-07T11:15:16.195Z,100870.67
2019-05-07T11:17:55.446Z,100867.67
2019-05-07T11:20:23.922Z,100864.84
2019-05-07T11:22:52.501Z,100863.78
2019-05-07T11:25:22.499Z,100859.03
2019-05-07T11:27:52.338Z,100857.52
2019-05-07T11:30:22.845Z,100848.98
2019-05-07T11:32:52.260Z,100852.98
2019-05-07T11:35:23.018Z,100853.89
2019-05-07T11:37:52.043Z,100843.75
2019-05-07T11:40:22.920Z,100839.97
2019-05-07T11:43:08.042Z,100840.36
2019-05-07T11:45:38.080Z,100837.22
2019-05-07T11:48:06.567Z,100840.86
2019-05-07T11:50:36.618Z,100838.45
2019-05-07T11:53:09.347Z,100834.75
2019-05-07T11:55:37.770Z,100838.53
2019-05-07T11:58:06.155Z,100838.19
2019-05-07T12:00:39.369Z,100833.16
2019-05-07T12:03:07.809Z,100828.50
2019-05-07T12:05:36.310Z,100825.31
2019-05-07T12:08:04.872Z,100828.65
2019-05-07T12:10:33.285Z,100828.28
2019-05-07T12:13:02.354Z,100831.45
2019-05-07T12:15:32.455Z,100826.30
2019-05-07T12:18:03.078Z,100827.02
2019-05-07T12:20:32.485Z,100822.83
2019-05-07T12:23:02.860Z,100816.33
2019-05-07T12:25:32.097Z,100816.16
2019-05-07T12:28:02.481Z,100813.22
2019-05-07T12:30:35.650Z,100814.73
2019-05-07T12:33:17.731Z,100807.20
2019-05-07T12:35:46.136Z,100811.73
2019-05-07T12:38:14.566Z,100806.98
2019-05-07T12:40:43.732Z,100802.84
2019-05-07T12:43:12.869Z,100797.66
2019-05-07T12:45:42.119Z,100800.88
2019-05-07T12:48:12.149Z,100802.61
2019-05-07T12:50:40.706Z,100802.42
2019-05-07T12:53:12.355Z,100799.11
2019-05-07T12:55:42.914Z,100793.02
2019-05-07T12:58:12.647Z,100796.27
2019-05-07T13:01:00.884Z,100791.91
2019-05-07T13:03:32.312Z,100794.21
2019-05-07T13:06:02.500Z,100781.73
2019-05-07T13:08:32.906Z,100776.95
2019-05-07T13:11:03.102Z,100774.32
2019-05-07T13:13:32.012Z,100777.06
2019-05-07T13:16:02.729Z,100773.83
2019-05-07T13:18:31.150Z,100769.19
2019-05-07T13:20:59.555Z,100768.41
2019-05-07T13:23:27.953Z,100755.66
2019-05-07T13:25:56.356Z,100759.38
2019-05-07T13:28:24.755Z,100763.27
2019-05-07T13:30:53.155Z,100753.72
2019-05-07T13:33:22.794Z,100758.13
2019-05-07T13:35:52.276Z,100753.13
2019-05-07T13:38:28.022Z,100750.09
2019-05-07T13:41:14.285Z,100751.08
2019-05-07T13:44:02.857Z,100743.17
2019-05-07T13:46:32.870Z,100739.50
2019-05-07T13:49:02.114Z,100743.91
2019-05-07T13:51:31.677Z,100739.36
2019-05-07T13:54:02.110Z,100736.34
2019-05-07T13:56:32.499Z,100734.25
2019-05-07T13:59:04.657Z,100733.70
2019-05-07T14:01:32.863Z,100731.69
2019-05-07T14:04:03.807Z,100721.89
2019-05-07T14:06:35.941Z,100729.13
2019-05-07T14:09:08.447Z,100718.13
2019-05-07T14:11:36.947Z,100716.55
2019-05-07T14:14:05.467Z,100711.66
2019-05-07T14:16:33.959Z,100717.92
2019-05-07T14:19:04.199Z,100713.02
2019-05-07T14:21:32.631Z,100714.29
2019-05-07T14:24:01.041Z,100718.63
2019-05-07T14:26:29.434Z,100710.94
2019-05-07T14:28:57.838Z,100710.34
2019-05-07T14:31:26.241Z,100708.14
2019-05-07T14:33:56.289Z,100708.61
2019-05-07T14:36:29.059Z,100708.92
2019-05-07T14:38:57.469Z,100702.23
2019-05-07T14:41:25.945Z,100694.94
2019-05-07T14:43:55.979Z,100702.56
2019-05-07T14:46:24.377Z,100689.83
2019-05-07T14:48:52.788Z,100688.11
2019-05-07T14:51:22.064Z,100690.00
2019-05-07T14:53:50.571Z,100685.31
2019-05-07T14:56:18.964Z,100682.62
2019-05-07T14:58:47.448Z,100689.11
2019-05-07T15:01:15.832Z,100690.84
2019-05-07T15:03:44.235Z,100693.72
2019-05-07T15:06:12.757Z,100688.55
2019-05-07T15:08:42.903Z,100681.22
2019-05-07T15:11:11.412Z,100679.81
2019-05-07T15:13:39.818Z,100679.05
2019-05-07T15:16:08.216Z,100681.77
2019-05-07T15:18:38.253Z,100682.66
2019-05-07T15:21:06.652Z,100678.25
2019-05-07T15:23:36.890Z,100674.80
2019-05-07T15:26:05.668Z,100676.53
2019-05-07T15:28:35.283Z,100668.70
2019-05-07T15:31:21.705Z,100679.27
2019-05-07T15:33:52.159Z,100674.89
2019-05-07T15:36:20.288Z,100675.38
2019-05-07T15:38:48.935Z,100667.38
2019-05-07T15:41:17.337Z,100671.37
2019-05-07T15:43:46.326Z,100663.29
2019-05-07T15:46:14.732Z,100663.77
2019-05-07T15:48:43.135Z,100659.92
2019-05-07T15:51:11.962Z,100657.41
2019-05-07T15:53:44.738Z,100651.98
2019-05-07T15:56:13.381Z,100651.44
2019-05-07T15:58:42.551Z,100646.97
2019-05-07T16:01:12.866Z,100647.17
2019-05-07T16:03:43.186Z,100644.15
2019-05-07T16:06:12.712Z,100638.61
2019-05-07T16:08:42.976Z,100635.41
2019-05-07T16:11:12.576Z,100635.80
2019-05-07T16:13:52.450Z,100629.32
2019-05-07T16:16:21.593Z,100632.72
2019-05-07T16:19:12.491Z,100630.56
2019-05-07T16:21:42.540Z,100628.19
2019-05-07T16:24:12.113Z,100622.97
2019-05-07T16:26:41.894Z,100621.36
2019-05-07T16:29:10.365Z,100624.78
2019-05-07T16:31:38.760Z,100620.82
2019-05-07T16:34:07.157Z,100620.13
2019-05-07T16:36:35.562Z,100611.39
2019-05-07T16:39:05.663Z,100614.36
2019-05-07T16:41:34.067Z,100606.75
2019-05-07T16:44:02.992Z,100614.38
2019-05-07T16:46:31.415Z,100604.03
2019-05-07T16:48:59.811Z,100605.14
2019-05-07T16:51:28.228Z,100603.87
2019-05-07T16:53:56.623Z,100598.77
2019-05-07T16:56:25.027Z,100601.50
2019-05-07T16:58:55.064Z,100593.98
2019-05-07T17:01:24.742Z,100597.98
2019-05-07T17:03:57.880Z,100600.15
2019-05-07T17:06:26.284Z,100600.44
2019-05-07T17:09:14.216Z,100602.61
2019-05-07T17:11:43.742Z,100600.02
2019-05-07T17:14:13.070Z,100590.95
2019-05-07T17:16:41.691Z,100593.06
2019-05-07T17:19:11.832Z,100590.52
2019-05-07T17:21:40.361Z,100592.08
2019-05-07T17:24:08.754Z,100582.53
2019-05-07T17:26:37.156Z,100581.41
2019-05-07T17:29:05.652Z,100581.41
2019-05-07T17:31:34.042Z,100582.53
2019-05-07T17:34:02.440Z,100579.28
2019-05-07T17:36:32.824Z,100580.20
2019-05-07T17:39:02.780Z,100573.04
2019-05-07T17:41:32.284Z,100573.86
2019-05-07T17:44:02.655Z,100569.66
2019-05-07T17:46:32.401Z,100572.26
2019-05-07T17:49:02.527Z,100575.63
2019-05-07T17:51:42.126Z,100571.50
2019-05-07T17:54:13.154Z,100573.09
2019-05-07T17:56:42.202Z,100568.19
2019-05-07T17:59:12.240Z,100567.05
2019-05-07T18:01:42.373Z,100567.67
2019-05-07T18:04:10.773Z,100567.53
2019-05-07T18:06:39.178Z,100562.02
2019-05-07T18:09:07.659Z,100563.59
2019-05-07T18:11:36.058Z,100558.61
2019-05-07T18:14:04.565Z,100555.23
2019-05-07T18:16:37.621Z,100560.81
2019-05-07T18:19:06.029Z,100556.38
2019-05-07T18:21:34.436Z,100557.91
2019-05-07T18:24:13.038Z,100554.03
2019-05-07T18:26:33.810Z,100547.59
2019-05-07T18:29:02.545Z,100545.37
2019-05-07T18:31:44.489Z,100549.08
2019-05-07T18:34:12.984Z,100554.03
2019-05-07T18:36:42.293Z,100551.19
2019-05-07T18:39:10.808Z,100546.63
2019-05-07T18:41:39.218Z,100546.09
2019-05-07T18:44:12.262Z,100544.42
2019-05-07T18:46:37.816Z,100545.37
2019-05-07T18:49:06.285Z,100544.91
2019-05-07T18:51:34.698Z,100550.22
2019-05-07T18:54:03.104Z,100547.09
2019-05-07T18:56:31.532Z,100545.78
2019-05-07T18:59:02.022Z,100547.82
2019-05-07T19:01:32.719Z,100541.06
2019-05-07T19:04:02.074Z,100542.14
2019-05-07T19:06:31.861Z,100541.87
2019-05-07T19:09:00.327Z,100544.42
2019-05-07T19:11:28.729Z,100542.74
2019-05-07T19:13:57.161Z,100539.45
2019-05-07T19:16:25.633Z,100539.56
2019-05-07T19:18:54.050Z,100549.92
2019-05-07T19:21:22.577Z,100546.29
2019-05-07T19:23:52.972Z,100548.19
2019-05-07T19:26:21.295Z,100548.34
2019-05-07T19:28:49.700Z,100548.23
2019-05-07T19:31:18.277Z,100553.28
2019-05-07T19:33:46.688Z,100547.49
2019-05-07T19:36:15.152Z,100547.48
2019-05-07T19:38:43.556Z,100546.50
2019-05-07T19:41:12.478Z,100547.22
2019-05-07T19:43:42.000Z,100547.80
2019-05-07T19:46:12.304Z,100550.38
2019-05-07T19:48:40.656Z,100547.19
2019-05-07T19:51:09.051Z,100540.88
2019-05-07T19:53:37.451Z,100544.17
2019-05-07T19:56:07.494Z,100539.20
2019-05-07T19:58:35.898Z,100545.31
2019-05-07T20:01:06.007Z,100537.79
2019-05-07T20:03:34.483Z,100541.34
2019-05-07T20:06:05.706Z,100541.27
2019-05-07T20:08:33.785Z,100533.06
2019-05-07T20:11:06.479Z,100531.31
2019-05-07T20:13:34.962Z,100545.56
2019-05-07T20:16:07.507Z,100538.97
2019-05-07T20:18:35.911Z,100535.88
2019-05-07T20:21:04.304Z,100535.45
2019-05-07T20:23:32.923Z,100531.50
2019-05-07T20:26:03.045Z,100524.36
2019-05-07T20:28:32.596Z,100525.90
2019-05-07T20:31:01.320Z,100519.98
2019-05-07T20:33:29.728Z,100519.40
2019-05-07T20:35:58.158Z,100517.45
2019-05-07T20:38:26.523Z,100518.62
2019-05-07T20:40:54.933Z,100513.31
2019-05-07T20:43:23.400Z,100511.45
2019-05-07T20:45:52.068Z,100506.16
2019-05-07T20:48:22.504Z,100505.45
2019-05-07T20:50:52.081Z,100512.80
2019-05-07T20:53:22.542Z,100506.05
2019-05-07T20:55:53.037Z,100509.45
2019-05-07T20:58:22.204Z,100505.01
2019-05-07T21:00:52.641Z,100509.97
2019-05-07T21:03:23.429Z,100509.27
2019-05-07T21:05:53.896Z,100505.14
2019-05-07T21:08:23.007Z,100508.70
2019-05-07T21:10:53.495Z,100512.02
2019-05-07T21:13:30.163Z,100508.59
2019-05-07T21:15:52.649Z,100501.19
2019-05-07T21:18:23.216Z,100498.29
2019-05-07T21:20:52.947Z,100499.66
2019-05-07T21:23:23.137Z,100493.17
2019-05-07T21:25:52.727Z,100494.13
2019-05-07T21:28:21.687Z,100491.86
2019-05-07T21:30:52.193Z,100493.35
2019-05-07T21:33:22.605Z,100492.38
2019-05-07T21:35:52.261Z,100481.89
2019-05-07T21:38:22.292Z,100480.84
2019-05-07T21:40:50.645Z,100485.75
2019-05-07T21:43:19.078Z,100475.70
2019-05-07T21:45:47.480Z,100477.03
2019-05-07T21:48:15.874Z,100469.37
2019-05-07T21:50:44.285Z,100466.05
2019-05-07T21:53:14.319Z,100464.16
2019-05-07T21:55:58.857Z,100464.16
2019-05-07T21:58:34.187Z,100461.13
2019-05-07T22:01:12.489Z,100455.89
2019-05-07T22:03:43.159Z,100442.91
2019-05-07T22:06:12.817Z,100445.48
2019-05-07T22:08:41.301Z,100437.20
2019-05-07T22:11:12.379Z,100438.25
2019-05-07T22:13:43.296Z,100430.77
2019-05-07T22:16:12.976Z,100436.64
2019-05-07T22:18:42.677Z,100432.02
2019-05-07T22:21:12.520Z,100434.66
2019-05-07T22:23:42.808Z,100428.62
2019-05-07T22:26:20.150Z,100434.85
2019-05-07T22:28:42.009Z,100429.86
2019-05-07T22:31:23.907Z,100424.86
2019-05-07T22:34:09.716Z,100432.97
2019-05-07T22:36:38.459Z,100429.02
2019-05-07T22:39:07.287Z,100427.50
2019-05-07T22:41:35.755Z,100424.09
2019-05-07T22:44:04.214Z,100416.22
2019-05-07T22:46:32.769Z,100411.39
2019-05-07T22:49:03.150Z,100403.79
2019-05-07T22:51:31.368Z,100407.18
2019-05-07T22:53:59.759Z,100398.59
2019-05-07T22:56:35.107Z,100393.59
2019-05-07T22:58:59.907Z,100394.75
2019-05-07T23:01:28.312Z,100391.72
2019-05-07T23:03:56.709Z,100391.34
2019-05-07T23:06:25.112Z,100392.49
2019-05-07T23:08:53.503Z,100383.05
2019-05-07T23:11:22.849Z,100385.78
2019-05-07T23:13:54.381Z,100379.47
2019-05-07T23:16:23.195Z,100374.48
2019-05-07T23:18:51.745Z,100372.61
2019-05-07T23:21:24.277Z,100366.02
2019-05-07T23:23:52.604Z,100358.66
2019-05-07T23:26:23.168Z,100358.07
2019-05-07T23:28:51.936Z,100356.39
2019-05-07T23:31:22.688Z,100351.18
2019-05-07T23:33:52.273Z,100349.69
2019-05-07T23:36:22.472Z,100352.84
2019-05-07T23:38:52.087Z,100349.27
2019-05-07T23:41:22.440Z,100343.90
2019-05-07T23:44:08.655Z,100341.00
2019-05-07T23:46:37.065Z,100338.92
2019-05-07T23:49:05.457Z,100339.84
2019-05-07T23:51:33.864Z,100334.52
2019-05-07T23:54:02.841Z,100330.18
2019-05-07T23:56:32.907Z,100329.67
2019-05-07T23:59:01.374Z,100324.13
